Nearby METAR Reports

 

KCGS - College Park, Maryland, USA
Distance from station: S 2mi, 3km
Updated: 10/18/2018 8:22pm
Clear
Clear
 Wind from calm
Wind: Calm
Temperature: 43°F , 6°C
Dew Point: 39°F , 4°C
Humidity: 87%
Barometer: 30.40 inHg , 1029.5 hPa
Clouds: Clear
Visibility: 10 miles , 16 km
2018/10/19 00:22 KCGS 190022Z AUTO 00000KT 10SM CLR 06/04 A3040 RMK AO1 T00600041
KFME - Fort Meade, Maryland, USA
Distance from station: ENE 10mi, 15km
Updated: 10/18/2018 8:21pm
Clear
Clear
 Wind from calm
Wind: Calm
Temperature: 41°F , 5°C
Dew Point: 37°F , 3°C
Humidity: 87%
Barometer: 30.42 inHg , 1030.1 hPa
Clouds: Clear
Visibility: 10 miles , 16 km
2018/10/19 00:21 KFME 190021Z AUTO 00000KT 10SM CLR 05/03 A3042 RMK AO1
KDCA - Washington/Natl, Washington D.c., USA
Distance from station: SSW 13mi, 20km
Updated: 10/18/2018 7:52pm
Clear
Clear
 Wind from W
Wind: W 5 mph , 7 km/h
Temperature: 55°F , 13°C
Dew Point: 32°F , 0°C
Humidity: 41%
Barometer: 30.41 inHg , 1029.8 hPa
Clouds: Clear
Visibility: 10 miles , 16 km
2018/10/18 23:52 KDCA 182352Z 26004KT 10SM CLR 13/00 A3041 RMK AO2 SLP297 T01280000 10150 20122 51007
 
KADW - Andrews Afb, Maryland, USA
Distance from station: SSE 14mi, 22km
Updated: 10/18/2018 7:56pm
Clear
Clear
 Wind from calm
Wind: Calm
Temperature: 45°F , 7°C
Dew Point: 37°F , 3°C
Humidity: 76%
Barometer: 30.39 inHg , 1029.1 hPa
Clouds: Clear
Visibility: 10 miles , 16 km
2018/10/18 23:56 KADW 182356Z AUTO 00000KT 10SM CLR 07/03 A3039 RMK AO2 SLP300 T00700031 10133 20069 51007 $
KBWI - Balto/Wash Intl, Maryland, USA
Distance from station: NE 17mi, 27km
Updated: 10/18/2018 7:54pm
Clear
Clear
 Wind from calm
Wind: Calm
Temperature: 45°F , 7°C
Dew Point: 37°F , 3°C
Humidity: 76%
Barometer: 30.39 inHg , 1029.1 hPa
Clouds: Clear
Visibility: 10 miles , 16 km
2018/10/18 23:54 KBWI 182354Z 00000KT 10SM CLR 07/03 A3039 RMK AO2 SLP292 T00720033 10139 20072 51009
KGAI - Gaithersburg, Maryland, USA
Distance from station: NW 17mi, 28km
Updated: 10/18/2018 7:56pm
Clear
Clear
 Wind from calm
Wind: Calm
Temperature: 43°F , 6°C
Dew Point: 39°F , 4°C
Humidity: 87%
Barometer: 30.40 inHg , 1029.5 hPa
Clouds: Clear
Visibility: 10 miles , 16 km
2018/10/18 23:56 KGAI 182356Z AUTO 00000KT 10SM CLR 06/04 A3040 RMK AO2 SLPNO T00610039 10128 20061 51007
 
KNAK - Annapolis/Naval, Maryland, USA
Distance from station: E 23mi, 38km
Updated: 10/18/2018 7:54pm
Clear
Clear
 Wind from WNW
Wind: WNW 3 mph , 6 km/h
Temperature: 54°F , 12°C
Dew Point: 37°F , 3°C
Humidity: 54%
Barometer: 30.40 inHg , 1029.5 hPa
Clouds: Clear
Visibility: 10 miles , 16 km
2018/10/18 23:54 KNAK 182354Z AUTO 30003KT 10SM CLR 12/03 A3040 RMK AO2 SLP296 T01220028 10156 20117 51009
KDAA - Fort Belvoir/Dav, Virginia, USA
Distance from station: SSW 24mi, 39km
Updated: 10/18/2018 7:56pm
Clear
Clear
 Wind from calm
Wind: Calm
Temperature: 43°F , 6°C
Dew Point: 43°F , 6°C
Humidity: 100%
Barometer: 30.40 inHg , 1029.5 hPa
Clouds: Clear
Visibility: 10 miles , 16 km
2018/10/18 23:56 KDAA 182356Z AUTO 00000KT 10SM CLR 06/06 A3040 RMK AO2 SLP298 T00640060 10150 20064 52007 TSNO $
KDMH - Baltimore/Dwntwn, Maryland, USA
Distance from station: NE 25mi, 40km
Updated: 10/18/2018 7:54pm

 
Temperature: 54°F , 12°C
Dew Point: 32°F , 0°C
Humidity: 44%
Barometer: 30.40 inHg , 1029.5 hPa
2018/10/18 23:54 KDMH 182354Z AUTO 12/00 A3040 RMK AO1 SLP292 T01220000 10139 20117 51017
 
KIAD - Wash Dc/Dulles, Virginia, USA
Distance from station: W 29mi, 47km
Updated: 10/18/2018 7:52pm
Clear
Clear
 Wind from S
Wind: S 3 mph , 6 km/h
Temperature: 45°F , 7°C
Dew Point: 37°F , 3°C
Humidity: 76%
Barometer: 30.40 inHg , 1029.5 hPa
Clouds: Clear
Visibility: 10 miles , 16 km
2018/10/18 23:52 KIAD 182352Z 19003KT 10SM CLR 07/03 A3040 RMK AO2 SLP294 T00720033 10144 20067 52006
KW29 - Stevensville, Maryland, USA
Distance from station: E 31mi, 51km
Updated: 10/18/2018 8:20pm
Clear
Clear
 Wind from NW
Wind: NW 5 mph , 7 km/h
Temperature: 54°F , 12°C
Dew Point: 34°F , 1°C
Humidity: 47%
Barometer: 30.40 inHg , 1029.5 hPa
Clouds: Clear
Visibility: 10 miles , 16 km
2018/10/19 00:20 KW29 190020Z AUTO 32004KT 10SM CLR 12/01 A3040 RMK AO2
KMTN - Baltimore/Martin, Maryland, USA
Distance from station: NE 34mi, 55km
Updated: 10/18/2018 7:50pm
Clear
Clear
 Wind from calm
Wind: Calm
Temperature: 48°F , 9°C
Dew Point: 37°F , 3°C
Humidity: 66%
Barometer: 30.41 inHg , 1029.8 hPa
Clouds: Clear
Visibility: 10 miles , 16 km
2018/10/18 23:50 KMTN 182350Z 00000KT 10SM SKC 09/03 A3041
 
KJYO - Leesburg/Godfrey, Virginia, USA
Distance from station: W 35mi, 56km
Updated: 10/18/2018 8:15pm
Clear
Clear
 Wind from calm
Wind: Calm
Temperature: 45°F , 7°C
Dew Point: 41°F , 5°C
Humidity: 87%
Barometer: 30.41 inHg , 1029.8 hPa
Clouds: Clear
Visibility: 10 miles , 16 km
2018/10/19 00:15 KJYO 190015Z AUTO 00000KT 10SM CLR 07/05 A3041 RMK AO2
KFDK - Frederick, Maryland, USA
Distance from station: NW 37mi, 60km
Updated: 10/18/2018 7:47pm
Clear
Clear
 Wind from calm
Wind: Calm
Temperature: 46°F , 8°C
Dew Point: 39°F , 4°C
Humidity: 76%
Barometer: 30.42 inHg , 1030.1 hPa
Clouds: Clear
Visibility: 10 miles , 16 km
2018/10/18 23:47 KFDK 182347Z 00000KT 10SM SKC 08/04 A3042
KHEF - Manassas Muni, Virginia, USA
Distance from station: WSW 38mi, 61km
Updated: 10/18/2018 7:56pm
Clear
Clear
 Wind from calm
Wind: Calm
Temperature: 43°F , 6°C
Dew Point: 39°F , 4°C
Humidity: 87%
Barometer: 30.41 inHg , 1029.8 hPa
Clouds: Clear
Visibility: 10 miles , 16 km
2018/10/18 23:56 KHEF 182356Z 00000KT 10SM CLR 06/04 A3041 RMK AO2 SLP310 6//// T00560044 10150 20056 53007 PNO $
 
KNYG - Quantico Mcaf, Virginia, USA
Distance from station: SSW 40mi, 65km
Updated: 10/18/2018 7:56pm
Clear
Clear
 Wind from NW
Wind: NW 7 mph , 11 km/h
Temperature: 48°F , 9°C
Wind Chill: 45°F , 7°C
Dew Point: 45°F , 7°C
Humidity: 87%
Barometer: 30.42 inHg , 1030.1 hPa
Clouds: Clear
Visibility: 10 miles , 16 km
2018/10/18 23:56 KNYG 182356Z AUTO 31006KT 10SM CLR 09/07 A3042 RMK AO2 SLP301 T00890072 10156 20089 53007 $
KDMW - Carroll Cnty, Maryland, USA
Distance from station: N 41mi, 66km
Updated: 10/18/2018 8:20pm
Clear
Clear
 Wind from calm
Wind: Calm
Barometer: 30.38 inHg , 1028.8 hPa
Clouds: Clear
Visibility: 10 miles , 16 km
2018/10/19 00:20 KDMW 190020Z AUTO 00000KT 10SM CLR A3038 RMK AO2
KESN - Easton/Newnam, Maryland, USA
Distance from station: ESE 48mi, 77km
Updated: 10/18/2018 7:50pm
Clear
Clear
 Wind from calm
Wind: Calm
Temperature: 48°F , 9°C
Dew Point: 39°F , 4°C
Humidity: 71%
Barometer: 30.43 inHg , 1030.5 hPa
Clouds: Clear
Visibility: 10 miles , 16 km
2018/10/18 23:50 KESN 182350Z 00000KT 10SM SKC 09/04 A3043